Whitewater, MO

7:20 AM CDT on April 19, 2015 (GMT -0500)
Cairo Regional | | Change Station
CLOSE
Current Station
Airport
Location: Cairo,
Elevation: 322 ft
Nearby Weather Stations

Elev 322 ft 37.06 °N, 89.22 °W | Updated 25 minutes ago

Rain
Rain
64 °F
Feels Like 64 °F
N
4
Wind Variable Wind from East

Today
High -- | Low -- °F
--% Chance of Precip.
Yesterday
High -- | Low -- °F
Precip. -- in
6:19 AM 7:37 PM
New Moon, 1% visible
Pressure 29.67 in
Visibility 7.0 miles
Clouds Scattered Clouds 600 ft
Mostly Cloudy 1000 ft
Overcast 1500 ft
Dew Point 64 °F
Humidity 100%
Rainfall 0.02 in
Snow Depth Not available.
UV 0 out of 12
Pollen 4.00 out of 12
Air Quality Not available.
Flu Activity Local Activity
METAR KCIR 191155Z AUTO 08003KT 7SM DZ SCT006 BKN010 OVC015 18/18 A2967 RMK AO2 60001 70001 T01780178 10192 20177

More Conditions Fewer Conditions

Pressure 29.67 in
Visibility 7.0 miles
Clouds Scattered Clouds 600 ft
Mostly Cloudy 1000 ft
Overcast 1500 ft
Dew Point 64 °F
Humidity 100%
Rainfall 0.02 in
Snow Depth Not available.
UV 0 out of 12
Pollen 4.00 out of 12
Air Quality Not available.
Flu Activity Local Activity
METAR KCIR 191155Z AUTO 08003KT 7SM DZ SCT006 BKN010 OVC015 18/18 A2967 RMK AO2 60001 70001 T01780178 10192 20177

More Conditions Fewer Conditions

10-Day Weather Forecast

Almanac

Astronomy

Apr. 19, 2015 Rise Set
Actual Time
Civil Twilight
Nautical Twilight
Astronomical Twilight
Moon
Length of Visible Light
Length of Day
Tomorrow will be .
, % of the Moon is Illuminated

Today's Extremes

State Highs State Lows

Community

WunderPhotos

Upload Photos

1,814,760 photos uploaded!

WunderBlogs® & News

Nearby

Air Quality

  Air Quality AQ Index Pollutant
Not available.

Snow Depth

Station Depth Elevation

Earthquake Activity

City Distance Mag. Time & Date
Minimum magnitude displayed is 2.5.

Coastal Water Temperatures

Place Temperature

Stations

Nearby Weather Stations

Station Location Temp. Windchill Dew Point Humidity Wind Precip. Elev Updated Type